Terminal Aerodrome Forecast
Issued by NWS Grand Forks, ND

Home | Current Version | Previous Version | Graphics & Text | Print | Product List | Glossary On
Versions: 1 2 3 4 5 6 7 8 9 10 11 12 13 14 15 16 17
000
FTUS43 KFGF 282230 AAC
TAFGFK
TAF AMD
KGFK 282230Z 2823/2918 26015KT P6SM -TSRA BKN040CB
     FM290000 28010KT P6SM BKN100
     FM290400 35012G18KT P6SM VCSH BKN050
     FM291000 35019G27KT P6SM OVC035=

USA.gov is the U.S. government's official web portal to all federal, state and local government web resources and services.